Liberty Mills, Indiana
Current Conditions -  °F | °C
As of 11:55 PM on Monday 22 Dec 2014 (Local Time) from KASW Reporting Station
Overcast Overcast  
Wind Chill: 32°   Ceiling: 3300
Heat Index: 39°   Visibility: 7mi
Dew Point: 37°   Wind: 10mph
Humidity: 93%   Direction: 110°ESE
Pressure: 29.68"   Gusts: 17mph
Location:  41.03°N, 85.74°W
Report Text: KASW 230455Z AUTO 11009G15KT 7SM OVC033 04/03 A2968 RMK AO2 P0001
Loading
Personal Weather Stations






























Interactive Weather Map New forecast layout! Learn more

10-Day Weather Forecast

Advertisements
Track Severe Weather on mobile